Terminal Aerodrome Forecast
Issued by NWS Wilmington, OH

Home | Current Version | Previous Version | Text Only | Print | Product List | Glossary On
Versions: 1 2 3 4 5 6 7 8 9 10 11 12 13 14 15 16 17 18 19 20
479
FTUS41 KILN 200858 AAD
TAFDAY
TAF AMD
KDAY 200858Z 2009/2106 15003KT 1/2SM FG VV004
     FM201300 VRB03KT 1SM BR BKN015
     FM201500 14004KT P6SM SCT015
     FM201800 14007KT P6SM SCT200
     FM210200 15007KT P6SM BKN250=

USA.gov is the U.S. government's official web portal to all federal, state and local government web resources and services.